Skokomish, Washington
Current Conditions -  °F | °C
As of 11:53 AM on Friday 24 Oct 2014 (Local Time) from KSHN Reporting Station
Broken Clouds Broken Clouds  
Wind Chill: 54°   Ceiling: 1000
Heat Index: 54°   Visibility: 10mi
Dew Point: 49°   Wind: 5mph
Humidity: 83%   Direction: NA
Pressure: 30"   Gusts: NA
Location:  47.1839°N, 123.15°W
Report Text: KSHN 241853Z AUTO VRB04KT 10SM BKN010 12/09 A3000 RMK AO2 SLP159 T01220094 TSNO
Loading
Personal Weather Stations






























Interactive Weather Map
Tropical Storm Tracking
New forecast layout! Learn more

10-Day Weather Forecast

Advertisements
Track Severe Weather on mobile